Aberdeen, Pennsylvania
Current Conditions -  °F | °C
As of 5:56 PM on Thursday 23 Oct 2014 (Local Time) from KMDT Reporting Station
Overcast Overcast  
Wind Chill: 16°   Ceiling: 5000
Heat Index: 16°   Visibility: 10mi
Dew Point:   Wind: 6mph
Humidity: 55%   Direction: 350°N
Pressure: 29.84"   Gusts: NA
Location:  40.1674°N, 76.6045°W
Report Text: KMDT 232156Z 35005KT 10SM OVC050 16/07 A2984 RMK AO2 SLP105 BINOVC T01560067
Loading
Personal Weather Stations






























Interactive Weather Map
Tropical Storm Tracking
New forecast layout! Learn more

10-Day Weather Forecast

Advertisements
Track Severe Weather on mobile